Time;durP1;ratioP1;P1;durP2;ratioP2;P2;SDS_P1;SDS_P2;PMS_P1;PMS_P2;Temp;Humidity;BMP_temperature;BMP_pressure;BME280_temperature;BME280_humidity;BME280_pressure;Samples;Min_cycle;Max_cycle;Signal;HPM_P1;HPM_P2
2021/07/28 00:00:40;;;;;;;10.2;9.15;;;;;;;20.05;86.34082;95059.88;;;;
2021/07/28 00:01:40;;;;;;;10.2;9.15;;;;;;;20.05;86.34082;95059.88;;;;
2021/07/28 00:02:41;;;;;;;10.2;9.15;;;;;;;20.05;86.34082;95059.88;;;;
2021/07/28 00:03:42;;;;;;;10.2;9.15;;;;;;;20.05;86.34082;95059.88;;;;
2021/07/28 00:04:43;;;;;;;10.2;9.15;;;;;;;20.05;86.34082;95059.88;;;;
2021/07/28 00:05:43;;;;;;;10.2;9.15;;;;;;;20.05;86.34082;95059.88;;;;
2021/07/28 00:06:44;;;;;;;10.2;9.15;;;;;;;20.05;86.34082;95059.88;;;;
2021/07/28 00:07:45;;;;;;;10.2;9.15;;;;;;;20.05;86.34082;95059.88;;;;
2021/07/28 00:08:45;;;;;;;10.2;9.15;;;;;;;20.05;86.34082;95059.88;;;;
2021/07/28 00:09:46;;;;;;;10.2;9.15;;;;;;;20.05;86.34082;95059.88;;;;
2021/07/28 00:10:47;;;;;;;9.35;8.450001;;;;;;;19.95;87.37695;95069.21;;;;
2021/07/28 00:11:47;;;;;;;9.35;8.450001;;;;;;;19.95;87.37695;95069.21;;;;
2021/07/28 00:12:48;;;;;;;9.35;8.450001;;;;;;;19.95;87.37695;95069.21;;;;
2021/07/28 00:13:49;;;;;;;9.35;8.450001;;;;;;;19.95;87.37695;95069.21;;;;
2021/07/28 00:14:50;;;;;;;9.35;8.450001;;;;;;;19.95;87.37695;95069.21;;;;
2021/07/28 00:15:52;;;;;;;9.35;8.450001;;;;;;;19.95;87.37695;95069.21;;;;
2021/07/28 00:16:52;;;;;;;9.35;8.450001;;;;;;;19.95;87.37695;95069.21;;;;
2021/07/28 00:17:55;;;;;;;9.35;8.450001;;;;;;;19.95;87.37695;95069.21;;;;
2021/07/28 00:19:03;;;;;;;9.35;8.450001;;;;;;;19.95;87.37695;95069.21;;;;
2021/07/28 00:20:07;;;;;;;9.35;8.450001;;;;;;;19.95;87.37695;95069.21;;;;
2021/07/28 00:26:21;;;;;;;10.55;9.549999;;;;;;;19.95;88.21387;95097.2;;;;
2021/07/28 00:27:22;;;;;;;10.55;9.549999;;;;;;;19.95;88.21387;95097.2;;;;
2021/07/28 00:28:22;;;;;;;10.55;9.549999;;;;;;;19.95;88.21387;95097.2;;;;
2021/07/28 00:29:23;;;;;;;10.55;9.549999;;;;;;;19.95;88.21387;95097.2;;;;
2021/07/28 00:30:23;;;;;;;10.55;9.549999;;;;;;;19.95;88.21387;95097.2;;;;
2021/07/28 00:31:24;;;;;;;10.55;9.549999;;;;;;;19.95;88.21387;95097.2;;;;
2021/07/28 00:32:24;;;;;;;10.3;7.55;;;;;;;19.85;89.04395;95100.5;;;;
2021/07/28 00:33:25;;;;;;;10.3;7.55;;;;;;;19.85;89.04395;95100.5;;;;
2021/07/28 00:34:25;;;;;;;10.3;7.55;;;;;;;19.85;89.04395;95100.5;;;;
2021/07/28 00:35:26;;;;;;;10.3;7.55;;;;;;;19.85;89.04395;95100.5;;;;
2021/07/28 00:36:27;;;;;;;10.3;7.55;;;;;;;19.85;89.04395;95100.5;;;;
2021/07/28 00:37:27;;;;;;;10.3;7.55;;;;;;;19.85;89.04395;95100.5;;;;
2021/07/28 00:38:28;;;;;;;10.3;7.55;;;;;;;19.85;89.04395;95100.5;;;;
2021/07/28 00:39:28;;;;;;;10.3;7.55;;;;;;;19.85;89.04395;95100.5;;;;
2021/07/28 00:40:29;;;;;;;10.3;7.55;;;;;;;19.85;89.04395;95100.5;;;;
2021/07/28 00:41:30;;;;;;;10.3;7.55;;;;;;;19.85;89.04395;95100.5;;;;
2021/07/28 00:42:30;;;;;;;7.5;6.7;;;;;;;19.7;89.04688;95073.35;;;;
2021/07/28 00:43:32;;;;;;;7.5;6.7;;;;;;;19.7;89.04688;95073.35;;;;
2021/07/28 00:44:32;;;;;;;7.5;6.7;;;;;;;19.7;89.04688;95073.35;;;;
2021/07/28 00:45:33;;;;;;;7.5;6.7;;;;;;;19.7;89.04688;95073.35;;;;
2021/07/28 00:46:33;;;;;;;7.5;6.7;;;;;;;19.7;89.04688;95073.35;;;;
2021/07/28 00:47:34;;;;;;;7.5;6.7;;;;;;;19.7;89.04688;95073.35;;;;
2021/07/28 00:48:35;;;;;;;7.5;6.7;;;;;;;19.7;89.04688;95073.35;;;;
2021/07/28 00:49:36;;;;;;;7.5;6.7;;;;;;;19.7;89.04688;95073.35;;;;
2021/07/28 00:50:36;;;;;;;7.5;6.7;;;;;;;19.7;89.04688;95073.35;;;;
2021/07/28 00:51:38;;;;;;;7.5;6.7;;;;;;;19.7;89.04688;95073.35;;;;
2021/07/28 00:52:39;;;;;;;7.5;6.7;;;;;;;19.7;89.04688;95073.35;;;;
2021/07/28 00:53:40;;;;;;;7.05;6.349999;;;;;;;19.4;89.16016;95062.83;;;;
2021/07/28 00:54:40;;;;;;;7.05;6.349999;;;;;;;19.4;89.16016;95062.83;;;;
2021/07/28 00:55:42;;;;;;;7.05;6.349999;;;;;;;19.4;89.16016;95062.83;;;;
2021/07/28 00:56:43;;;;;;;7.05;6.349999;;;;;;;19.4;89.16016;95062.83;;;;
2021/07/28 00:57:43;;;;;;;7.05;6.349999;;;;;;;19.4;89.16016;95062.83;;;;
2021/07/28 00:58:45;;;;;;;7.05;6.349999;;;;;;;19.4;89.16016;95062.83;;;;
2021/07/28 00:59:46;;;;;;;7.05;6.349999;;;;;;;19.4;89.16016;95062.83;;;;
2021/07/28 01:00:47;;;;;;;7.05;6.349999;;;;;;;19.4;89.16016;95062.83;;;;
2021/07/28 01:01:47;;;;;;;7.05;6.349999;;;;;;;19.4;89.16016;95062.83;;;;
2021/07/28 01:02:48;;;;;;;7.05;6.349999;;;;;;;19.4;89.16016;95062.83;;;;
2021/07/28 01:03:49;;;;;;;7.849999;7.149999;;;;;;;19.14;89.62891;95038.69;;;;
2021/07/28 01:04:49;;;;;;;7.849999;7.149999;;;;;;;19.14;89.62891;95038.69;;;;
2021/07/28 01:05:50;;;;;;;7.849999;7.149999;;;;;;;19.14;89.62891;95038.69;;;;
2021/07/28 01:06:50;;;;;;;7.849999;7.149999;;;;;;;19.14;89.62891;95038.69;;;;
2021/07/28 01:07:51;;;;;;;7.849999;7.149999;;;;;;;19.14;89.62891;95038.69;;;;
2021/07/28 01:08:53;;;;;;;7.849999;7.149999;;;;;;;19.14;89.62891;95038.69;;;;
2021/07/28 01:09:54;;;;;;;7.849999;7.149999;;;;;;;19.14;89.62891;95038.69;;;;
2021/07/28 01:10:55;;;;;;;7.849999;7.149999;;;;;;;19.14;89.62891;95038.69;;;;
2021/07/28 01:11:57;;;;;;;7.849999;7.149999;;;;;;;19.14;89.62891;95038.69;;;;
2021/07/28 01:12:58;;;;;;;7.849999;7.149999;;;;;;;19.14;89.62891;95038.69;;;;
2021/07/28 01:13:59;;;;;;;7.849999;7.149999;;;;;;;19.14;89.62891;95038.69;;;;
2021/07/28 01:14:59;;;;;;;7.75;6.900001;;;;;;;18.87;90.29297;95021.92;;;;
2021/07/28 01:16:00;;;;;;;7.75;6.900001;;;;;;;18.87;90.29297;95021.92;;;;
2021/07/28 01:17:04;;;;;;;7.75;6.900001;;;;;;;18.87;90.29297;95021.92;;;;
2021/07/28 01:18:05;;;;;;;7.75;6.900001;;;;;;;18.87;90.29297;95021.92;;;;
2021/07/28 01:19:07;;;;;;;7.75;6.900001;;;;;;;18.87;90.29297;95021.92;;;;
2021/07/28 01:20:11;;;;;;;7.75;6.900001;;;;;;;18.87;90.29297;95021.92;;;;
2021/07/28 01:21:13;;;;;;;7.75;6.900001;;;;;;;18.87;90.29297;95021.92;;;;
2021/07/28 01:22:15;;;;;;;7.75;6.900001;;;;;;;18.87;90.29297;95021.92;;;;
2021/07/28 01:23:16;;;;;;;7.75;6.900001;;;;;;;18.87;90.29297;95021.92;;;;
2021/07/28 01:24:20;;;;;;;7.75;6.900001;;;;;;;18.87;90.29297;95021.92;;;;
2021/07/28 01:25:22;;;;;;;8.4;7.550001;;;;;;;18.75;90.99414;95025.64;;;;
2021/07/28 01:26:22;;;;;;;8.4;7.550001;;;;;;;18.75;90.99414;95025.64;;;;
2021/07/28 01:27:25;;;;;;;8.4;7.550001;;;;;;;18.75;90.99414;95025.64;;;;
2021/07/28 01:28:26;;;;;;;8.4;7.550001;;;;;;;18.75;90.99414;95025.64;;;;
2021/07/28 01:29:28;;;;;;;8.4;7.550001;;;;;;;18.75;90.99414;95025.64;;;;
2021/07/28 01:30:31;;;;;;;8.4;7.550001;;;;;;;18.75;90.99414;95025.64;;;;
2021/07/28 01:31:32;;;;;;;8.4;7.550001;;;;;;;18.75;90.99414;95025.64;;;;
2021/07/28 01:32:38;;;;;;;8.4;7.550001;;;;;;;18.75;90.99414;95025.64;;;;
2021/07/28 01:33:39;;;;;;;8.4;7.550001;;;;;;;18.75;90.99414;95025.64;;;;
2021/07/28 01:34:42;;;;;;;8.4;7.550001;;;;;;;18.75;90.99414;95025.64;;;;
2021/07/28 01:35:43;;;;;;;8.950001;8.15;;;;;;;18.64;91.71094;95061.47;;;;
2021/07/28 01:36:45;;;;;;;8.950001;8.15;;;;;;;18.64;91.71094;95061.47;;;;
2021/07/28 01:37:47;;;;;;;8.950001;8.15;;;;;;;18.64;91.71094;95061.47;;;;
2021/07/28 01:38:48;;;;;;;8.950001;8.15;;;;;;;18.64;91.71094;95061.47;;;;
2021/07/28 01:39:50;;;;;;;8.950001;8.15;;;;;;;18.64;91.71094;95061.47;;;;
2021/07/28 01:40:50;;;;;;;8.950001;8.15;;;;;;;18.64;91.71094;95061.47;;;;
2021/07/28 01:41:52;;;;;;;8.950001;8.15;;;;;;;18.64;91.71094;95061.47;;;;
2021/07/28 01:42:57;;;;;;;8.950001;8.15;;;;;;;18.64;91.71094;95061.47;;;;
2021/07/28 01:43:57;;;;;;;8.950001;8.15;;;;;;;18.64;91.71094;95061.47;;;;
2021/07/28 01:44:58;;;;;;;8.950001;8.15;;;;;;;18.64;91.71094;95061.47;;;;
2021/07/28 01:45:58;;;;;;;8.950001;8.15;;;;;;;18.64;91.71094;95061.47;;;;
2021/07/28 01:47:01;;;;;;;8.749999;7.95;;;;;;;18.67;92.54102;95051.88;;;;
2021/07/28 01:48:02;;;;;;;8.749999;7.95;;;;;;;18.67;92.54102;95051.88;;;;
2021/07/28 01:49:03;;;;;;;8.749999;7.95;;;;;;;18.67;92.54102;95051.88;;;;
2021/07/28 01:50:03;;;;;;;8.749999;7.95;;;;;;;18.67;92.54102;95051.88;;;;
2021/07/28 01:51:05;;;;;;;8.749999;7.95;;;;;;;18.67;92.54102;95051.88;;;;
2021/07/28 01:52:06;;;;;;;8.749999;7.95;;;;;;;18.67;92.54102;95051.88;;;;
2021/07/28 01:53:07;;;;;;;8.749999;7.95;;;;;;;18.67;92.54102;95051.88;;;;
2021/07/28 01:54:07;;;;;;;8.749999;7.95;;;;;;;18.67;92.54102;95051.88;;;;
2021/07/28 01:55:08;;;;;;;8.749999;7.95;;;;;;;18.67;92.54102;95051.88;;;;
2021/07/28 01:56:10;;;;;;;8.749999;7.95;;;;;;;18.67;92.54102;95051.88;;;;
2021/07/28 01:57:11;;;;;;;8.050001;7.25;;;;;;;18.61;93.09277;95043.47;;;;
2021/07/28 01:58:12;;;;;;;8.050001;7.25;;;;;;;18.61;93.09277;95043.47;;;;
2021/07/28 01:59:15;;;;;;;8.050001;7.25;;;;;;;18.61;93.09277;95043.47;;;;
2021/07/28 02:00:15;;;;;;;8.050001;7.25;;;;;;;18.61;93.09277;95043.47;;;;
2021/07/28 02:01:17;;;;;;;8.050001;7.25;;;;;;;18.61;93.09277;95043.47;;;;
2021/07/28 02:02:17;;;;;;;8.050001;7.25;;;;;;;18.61;93.09277;95043.47;;;;
2021/07/28 02:03:18;;;;;;;8.050001;7.25;;;;;;;18.61;93.09277;95043.47;;;;
2021/07/28 02:04:19;;;;;;;8.050001;7.25;;;;;;;18.61;93.09277;95043.47;;;;
2021/07/28 02:05:19;;;;;;;8.050001;7.25;;;;;;;18.61;93.09277;95043.47;;;;
2021/07/28 02:06:20;;;;;;;8.050001;7.25;;;;;;;18.61;93.09277;95043.47;;;;
2021/07/28 02:07:20;;;;;;;8.050001;7.25;;;;;;;18.61;93.09277;95043.47;;;;
2021/07/28 02:08:21;;;;;;;8.299998;7.5;;;;;;;18.57;93.55078;95029.57;;;;
2021/07/28 02:09:21;;;;;;;8.299998;7.5;;;;;;;18.57;93.55078;95029.57;;;;
2021/07/28 02:10:22;;;;;;;8.299998;7.5;;;;;;;18.57;93.55078;95029.57;;;;
2021/07/28 02:11:22;;;;;;;8.299998;7.5;;;;;;;18.57;93.55078;95029.57;;;;
2021/07/28 02:12:23;;;;;;;8.299998;7.5;;;;;;;18.57;93.55078;95029.57;;;;
2021/07/28 02:13:23;;;;;;;8.299998;7.5;;;;;;;18.57;93.55078;95029.57;;;;
2021/07/28 02:14:24;;;;;;;8.299998;7.5;;;;;;;18.57;93.55078;95029.57;;;;
2021/07/28 02:15:25;;;;;;;8.299998;7.5;;;;;;;18.57;93.55078;95029.57;;;;
2021/07/28 02:16:25;;;;;;;8.299998;7.5;;;;;;;18.57;93.55078;95029.57;;;;
2021/07/28 02:17:26;;;;;;;8.299998;7.5;;;;;;;18.57;93.55078;95029.57;;;;
2021/07/28 02:18:27;;;;;;;7.199999;6.600001;;;;;;;18.45;94.1084;95018.36;;;;
2021/07/28 02:19:27;;;;;;;7.199999;6.600001;;;;;;;18.45;94.1084;95018.36;;;;
2021/07/28 02:20:28;;;;;;;7.199999;6.600001;;;;;;;18.45;94.1084;95018.36;;;;
2021/07/28 02:21:29;;;;;;;7.199999;6.600001;;;;;;;18.45;94.1084;95018.36;;;;
2021/07/28 02:22:29;;;;;;;7.199999;6.600001;;;;;;;18.45;94.1084;95018.36;;;;
2021/07/28 02:23:30;;;;;;;7.199999;6.600001;;;;;;;18.45;94.1084;95018.36;;;;
2021/07/28 02:24:30;;;;;;;7.199999;6.600001;;;;;;;18.45;94.1084;95018.36;;;;
2021/07/28 02:25:31;;;;;;;7.199999;6.600001;;;;;;;18.45;94.1084;95018.36;;;;
2021/07/28 02:26:31;;;;;;;7.199999;6.600001;;;;;;;18.45;94.1084;95018.36;;;;
2021/07/28 02:27:32;;;;;;;7.199999;6.600001;;;;;;;18.45;94.1084;95018.36;;;;
2021/07/28 02:28:32;;;;;;;7.199999;6.600001;;;;;;;18.45;94.1084;95018.36;;;;
2021/07/28 02:29:34;;;;;;;7.15;6.45;;;;;;;18.39;94.55078;95019.35;;;;
2021/07/28 02:30:35;;;;;;;7.15;6.45;;;;;;;18.39;94.55078;95019.35;;;;
2021/07/28 02:31:36;;;;;;;7.15;6.45;;;;;;;18.39;94.55078;95019.35;;;;
2021/07/28 02:32:36;;;;;;;7.15;6.45;;;;;;;18.39;94.55078;95019.35;;;;
2021/07/28 02:33:38;;;;;;;7.15;6.45;;;;;;;18.39;94.55078;95019.35;;;;
2021/07/28 02:34:38;;;;;;;7.15;6.45;;;;;;;18.39;94.55078;95019.35;;;;
2021/07/28 02:35:39;;;;;;;7.15;6.45;;;;;;;18.39;94.55078;95019.35;;;;
2021/07/28 02:36:39;;;;;;;7.15;6.45;;;;;;;18.39;94.55078;95019.35;;;;
2021/07/28 02:37:41;;;;;;;7.15;6.45;;;;;;;18.39;94.55078;95019.35;;;;
2021/07/28 02:38:43;;;;;;;7.15;6.45;;;;;;;18.39;94.55078;95019.35;;;;
2021/07/28 02:39:43;;;;;;;7.050001;6.35;;;;;;;18.28;94.96191;95032.87;;;;
2021/07/28 02:40:44;;;;;;;7.050001;6.35;;;;;;;18.28;94.96191;95032.87;;;;
2021/07/28 02:41:44;;;;;;;7.050001;6.35;;;;;;;18.28;94.96191;95032.87;;;;
2021/07/28 02:42:45;;;;;;;7.050001;6.35;;;;;;;18.28;94.96191;95032.87;;;;
2021/07/28 02:43:46;;;;;;;7.050001;6.35;;;;;;;18.28;94.96191;95032.87;;;;
2021/07/28 02:44:46;;;;;;;7.050001;6.35;;;;;;;18.28;94.96191;95032.87;;;;
2021/07/28 02:45:47;;;;;;;7.050001;6.35;;;;;;;18.28;94.96191;95032.87;;;;
2021/07/28 02:46:47;;;;;;;7.050001;6.35;;;;;;;18.28;94.96191;95032.87;;;;
2021/07/28 02:47:48;;;;;;;7.050001;6.35;;;;;;;18.28;94.96191;95032.87;;;;
2021/07/28 02:48:48;;;;;;;7.050001;6.35;;;;;;;18.28;94.96191;95032.87;;;;
2021/07/28 02:49:49;;;;;;;7.050001;6.35;;;;;;;18.28;94.96191;95032.87;;;;
2021/07/28 02:50:49;;;;;;;6.9;6.299999;;;;;;;18.25;95.45117;95059.97;;;;
2021/07/28 02:51:50;;;;;;;6.9;6.299999;;;;;;;18.25;95.45117;95059.97;;;;
2021/07/28 02:52:50;;;;;;;6.9;6.299999;;;;;;;18.25;95.45117;95059.97;;;;
2021/07/28 02:53:51;;;;;;;6.9;6.299999;;;;;;;18.25;95.45117;95059.97;;;;
2021/07/28 02:54:51;;;;;;;6.9;6.299999;;;;;;;18.25;95.45117;95059.97;;;;
2021/07/28 02:55:52;;;;;;;6.9;6.299999;;;;;;;18.25;95.45117;95059.97;;;;
2021/07/28 02:56:52;;;;;;;6.9;6.299999;;;;;;;18.25;95.45117;95059.97;;;;
2021/07/28 02:57:53;;;;;;;6.9;6.299999;;;;;;;18.25;95.45117;95059.97;;;;
2021/07/28 02:58:53;;;;;;;6.9;6.299999;;;;;;;18.25;95.45117;95059.97;;;;
2021/07/28 02:59:54;;;;;;;6.9;6.299999;;;;;;;18.25;95.45117;95059.97;;;;
2021/07/28 03:00:54;;;;;;;8.35;6.149999;;;;;;;18.17;95.99805;95044.21;;;;
2021/07/28 03:01:55;;;;;;;8.35;6.149999;;;;;;;18.17;95.99805;95044.21;;;;
2021/07/28 03:02:55;;;;;;;8.35;6.149999;;;;;;;18.17;95.99805;95044.21;;;;
2021/07/28 03:03:56;;;;;;;8.35;6.149999;;;;;;;18.17;95.99805;95044.21;;;;
2021/07/28 03:04:57;;;;;;;8.35;6.149999;;;;;;;18.17;95.99805;95044.21;;;;
2021/07/28 03:05:57;;;;;;;8.35;6.149999;;;;;;;18.17;95.99805;95044.21;;;;
2021/07/28 03:06:58;;;;;;;8.35;6.149999;;;;;;;18.17;95.99805;95044.21;;;;
2021/07/28 03:07:58;;;;;;;8.35;6.149999;;;;;;;18.17;95.99805;95044.21;;;;
2021/07/28 03:08:59;;;;;;;8.35;6.149999;;;;;;;18.17;95.99805;95044.21;;;;
2021/07/28 03:09:59;;;;;;;8.35;6.149999;;;;;;;18.17;95.99805;95044.21;;;;
2021/07/28 03:11:00;;;;;;;8.35;6.149999;;;;;;;18.17;95.99805;95044.21;;;;
2021/07/28 03:12:00;;;;;;;7.85;7.050001;;;;;;;18.13;96.39063;95035.78;;;;
2021/07/28 03:13:01;;;;;;;7.85;7.050001;;;;;;;18.13;96.39063;95035.78;;;;
2021/07/28 03:14:02;;;;;;;7.85;7.050001;;;;;;;18.13;96.39063;95035.78;;;;
2021/07/28 03:15:02;;;;;;;7.85;7.050001;;;;;;;18.13;96.39063;95035.78;;;;
2021/07/28 03:16:04;;;;;;;7.85;7.050001;;;;;;;18.13;96.39063;95035.78;;;;
2021/07/28 03:17:07;;;;;;;7.85;7.050001;;;;;;;18.13;96.39063;95035.78;;;;
2021/07/28 03:18:07;;;;;;;7.85;7.050001;;;;;;;18.13;96.39063;95035.78;;;;
2021/07/28 03:19:08;;;;;;;7.85;7.050001;;;;;;;18.13;96.39063;95035.78;;;;
2021/07/28 03:20:08;;;;;;;7.85;7.050001;;;;;;;18.13;96.39063;95035.78;;;;
2021/07/28 03:21:10;;;;;;;7.85;7.050001;;;;;;;18.13;96.39063;95035.78;;;;
2021/07/28 03:22:11;;;;;;;7.85;7.050001;;;;;;;18.13;96.39063;95035.78;;;;
2021/07/28 03:23:12;;;;;;;7.249999;6.55;;;;;;;18.02;96.95996;95035.61;;;;
2021/07/28 03:24:12;;;;;;;7.249999;6.55;;;;;;;18.02;96.95996;95035.61;;;;
2021/07/28 03:25:13;;;;;;;7.249999;6.55;;;;;;;18.02;96.95996;95035.61;;;;
2021/07/28 03:26:13;;;;;;;7.249999;6.55;;;;;;;18.02;96.95996;95035.61;;;;
2021/07/28 03:27:14;;;;;;;7.249999;6.55;;;;;;;18.02;96.95996;95035.61;;;;
2021/07/28 03:28:14;;;;;;;7.249999;6.55;;;;;;;18.02;96.95996;95035.61;;;;
2021/07/28 03:29:15;;;;;;;7.249999;6.55;;;;;;;18.02;96.95996;95035.61;;;;
2021/07/28 03:30:15;;;;;;;7.249999;6.55;;;;;;;18.02;96.95996;95035.61;;;;
2021/07/28 03:31:16;;;;;;;7.249999;6.55;;;;;;;18.02;96.95996;95035.61;;;;
2021/07/28 03:32:16;;;;;;;7.249999;6.55;;;;;;;18.02;96.95996;95035.61;;;;
2021/07/28 03:33:17;;;;;;;7.749999;7.050001;;;;;;;18.04;97.54785;95050.19;;;;
2021/07/28 03:34:18;;;;;;;7.749999;7.050001;;;;;;;18.04;97.54785;95050.19;;;;
2021/07/28 03:35:19;;;;;;;7.749999;7.050001;;;;;;;18.04;97.54785;95050.19;;;;
2021/07/28 03:36:20;;;;;;;7.749999;7.050001;;;;;;;18.04;97.54785;95050.19;;;;
2021/07/28 03:37:20;;;;;;;7.749999;7.050001;;;;;;;18.04;97.54785;95050.19;;;;
2021/07/28 03:38:21;;;;;;;7.749999;7.050001;;;;;;;18.04;97.54785;95050.19;;;;
2021/07/28 03:39:22;;;;;;;7.749999;7.050001;;;;;;;18.04;97.54785;95050.19;;;;
2021/07/28 03:40:22;;;;;;;7.749999;7.050001;;;;;;;18.04;97.54785;95050.19;;;;
2021/07/28 03:41:23;;;;;;;7.749999;7.050001;;;;;;;18.04;97.54785;95050.19;;;;
2021/07/28 03:42:24;;;;;;;7.749999;7.050001;;;;;;;18.04;97.54785;95050.19;;;;
2021/07/28 03:43:24;;;;;;;7.749999;7.050001;;;;;;;18.04;97.54785;95050.19;;;;
2021/07/28 03:44:25;;;;;;;9.949999;8.25;;;;;;;18;97.83203;95038.22;;;;
2021/07/28 03:45:25;;;;;;;9.949999;8.25;;;;;;;18;97.83203;95038.22;;;;
2021/07/28 03:46:26;;;;;;;9.949999;8.25;;;;;;;18;97.83203;95038.22;;;;
2021/07/28 03:47:26;;;;;;;9.949999;8.25;;;;;;;18;97.83203;95038.22;;;;
2021/07/28 03:48:30;;;;;;;9.949999;8.25;;;;;;;18;97.83203;95038.22;;;;
2021/07/28 03:49:31;;;;;;;9.949999;8.25;;;;;;;18;97.83203;95038.22;;;;
2021/07/28 03:50:31;;;;;;;9.949999;8.25;;;;;;;18;97.83203;95038.22;;;;
2021/07/28 03:51:32;;;;;;;9.949999;8.25;;;;;;;18;97.83203;95038.22;;;;
2021/07/28 03:52:32;;;;;;;9.949999;8.25;;;;;;;18;97.83203;95038.22;;;;
2021/07/28 03:53:35;;;;;;;9.949999;8.25;;;;;;;18;97.83203;95038.22;;;;
2021/07/28 03:54:35;;;;;;;10.1;9.050001;;;;;;;18.04;98.44531;95025.59;;;;
2021/07/28 03:55:36;;;;;;;10.1;9.050001;;;;;;;18.04;98.44531;95025.59;;;;
2021/07/28 03:56:36;;;;;;;10.1;9.050001;;;;;;;18.04;98.44531;95025.59;;;;
2021/07/28 03:57:37;;;;;;;10.1;9.050001;;;;;;;18.04;98.44531;95025.59;;;;
2021/07/28 03:58:37;;;;;;;10.1;9.050001;;;;;;;18.04;98.44531;95025.59;;;;
2021/07/28 03:59:38;;;;;;;10.1;9.050001;;;;;;;18.04;98.44531;95025.59;;;;
2021/07/28 04:00:39;;;;;;;10.1;9.050001;;;;;;;18.04;98.44531;95025.59;;;;
2021/07/28 04:01:39;;;;;;;10.1;9.050001;;;;;;;18.04;98.44531;95025.59;;;;
2021/07/28 04:02:40;;;;;;;10.1;9.050001;;;;;;;18.04;98.44531;95025.59;;;;
2021/07/28 04:03:40;;;;;;;10.1;9.050001;;;;;;;18.04;98.44531;95025.59;;;;
2021/07/28 04:04:41;;;;;;;10.1;9.050001;;;;;;;18.04;98.44531;95025.59;;;;
2021/07/28 04:05:41;;;;;;;10.3;9.299998;;;;;;;17.99;98.94238;95018.41;;;;
2021/07/28 04:06:42;;;;;;;10.3;9.299998;;;;;;;17.99;98.94238;95018.41;;;;
2021/07/28 04:07:43;;;;;;;10.3;9.299998;;;;;;;17.99;98.94238;95018.41;;;;
2021/07/28 04:08:43;;;;;;;10.3;9.299998;;;;;;;17.99;98.94238;95018.41;;;;
2021/07/28 04:09:44;;;;;;;10.3;9.299998;;;;;;;17.99;98.94238;95018.41;;;;
2021/07/28 04:10:44;;;;;;;10.3;9.299998;;;;;;;17.99;98.94238;95018.41;;;;
2021/07/28 04:11:45;;;;;;;10.3;9.299998;;;;;;;17.99;98.94238;95018.41;;;;
2021/07/28 04:12:45;;;;;;;10.3;9.299998;;;;;;;17.99;98.94238;95018.41;;;;
2021/07/28 04:13:46;;;;;;;10.3;9.299998;;;;;;;17.99;98.94238;95018.41;;;;
2021/07/28 04:14:46;;;;;;;10.3;9.299998;;;;;;;17.99;98.94238;95018.41;;;;
2021/07/28 04:15:47;;;;;;;11.05;9.799999;;;;;;;18.05;99.61621;95002.64;;;;
2021/07/28 04:16:47;;;;;;;11.05;9.799999;;;;;;;18.05;99.61621;95002.64;;;;
2021/07/28 04:17:48;;;;;;;11.05;9.799999;;;;;;;18.05;99.61621;95002.64;;;;
2021/07/28 04:18:48;;;;;;;11.05;9.799999;;;;;;;18.05;99.61621;95002.64;;;;
2021/07/28 04:19:49;;;;;;;11.05;9.799999;;;;;;;18.05;99.61621;95002.64;;;;
2021/07/28 04:20:49;;;;;;;11.05;9.799999;;;;;;;18.05;99.61621;95002.64;;;;
2021/07/28 04:21:50;;;;;;;11.05;9.799999;;;;;;;18.05;99.61621;95002.64;;;;
2021/07/28 04:22:51;;;;;;;11.05;9.799999;;;;;;;18.05;99.61621;95002.64;;;;
2021/07/28 04:23:51;;;;;;;11.05;9.799999;;;;;;;18.05;99.61621;95002.64;;;;
2021/07/28 04:24:52;;;;;;;11.05;9.799999;;;;;;;18.05;99.61621;95002.64;;;;
2021/07/28 04:25:53;;;;;;;11.05;9.799999;;;;;;;18.05;99.61621;95002.64;;;;
2021/07/28 04:26:53;;;;;;;12.4;11.1;;;;;;;18.06;100;95012.45;;;;
2021/07/28 04:27:54;;;;;;;12.4;11.1;;;;;;;18.06;100;95012.45;;;;
2021/07/28 04:28:54;;;;;;;12.4;11.1;;;;;;;18.06;100;95012.45;;;;
2021/07/28 04:29:55;;;;;;;12.4;11.1;;;;;;;18.06;100;95012.45;;;;
2021/07/28 04:30:55;;;;;;;12.4;11.1;;;;;;;18.06;100;95012.45;;;;
2021/07/28 04:31:56;;;;;;;12.4;11.1;;;;;;;18.06;100;95012.45;;;;
2021/07/28 04:32:56;;;;;;;12.4;11.1;;;;;;;18.06;100;95012.45;;;;
2021/07/28 04:33:57;;;;;;;12.4;11.1;;;;;;;18.06;100;95012.45;;;;
2021/07/28 04:34:57;;;;;;;12.4;11.1;;;;;;;18.06;100;95012.45;;;;
2021/07/28 04:35:58;;;;;;;12.4;11.1;;;;;;;18.06;100;95012.45;;;;
2021/07/28 04:36:58;;;;;;;13.15;11.65;;;;;;;18.11;100;95003;;;;
2021/07/28 04:37:59;;;;;;;13.15;11.65;;;;;;;18.11;100;95003;;;;
2021/07/28 04:39:00;;;;;;;13.15;11.65;;;;;;;18.11;100;95003;;;;
2021/07/28 04:40:01;;;;;;;13.15;11.65;;;;;;;18.11;100;95003;;;;
2021/07/28 04:41:02;;;;;;;13.15;11.65;;;;;;;18.11;100;95003;;;;
2021/07/28 04:42:03;;;;;;;13.15;11.65;;;;;;;18.11;100;95003;;;;
2021/07/28 04:43:04;;;;;;;13.15;11.65;;;;;;;18.11;100;95003;;;;
2021/07/28 04:44:04;;;;;;;13.15;11.65;;;;;;;18.11;100;95003;;;;
2021/07/28 04:45:05;;;;;;;13.15;11.65;;;;;;;18.11;100;95003;;;;
2021/07/28 04:46:06;;;;;;;13.15;11.65;;;;;;;18.11;100;95003;;;;
2021/07/28 04:47:07;;;;;;;13.15;11.65;;;;;;;18.11;100;95003;;;;
2021/07/28 04:48:07;;;;;;;10.85;9.799999;;;;;;;18.08;100;95037.58;;;;
2021/07/28 04:49:08;;;;;;;10.85;9.799999;;;;;;;18.08;100;95037.58;;;;
2021/07/28 04:50:08;;;;;;;10.85;9.799999;;;;;;;18.08;100;95037.58;;;;
2021/07/28 04:51:10;;;;;;;10.85;9.799999;;;;;;;18.08;100;95037.58;;;;
2021/07/28 04:52:12;;;;;;;10.85;9.799999;;;;;;;18.08;100;95037.58;;;;
2021/07/28 04:53:13;;;;;;;10.85;9.799999;;;;;;;18.08;100;95037.58;;;;
2021/07/28 04:54:13;;;;;;;10.85;9.799999;;;;;;;18.08;100;95037.58;;;;
2021/07/28 04:55:14;;;;;;;10.85;9.799999;;;;;;;18.08;100;95037.58;;;;
2021/07/28 04:56:14;;;;;;;10.85;9.799999;;;;;;;18.08;100;95037.58;;;;
2021/07/28 04:57:15;;;;;;;10.85;9.799999;;;;;;;18.08;100;95037.58;;;;
2021/07/28 04:58:15;;;;;;;8.550001;7.6;;;;;;;18.11;100;95045.19;;;;
2021/07/28 04:59:16;;;;;;;8.550001;7.6;;;;;;;18.11;100;95045.19;;;;
2021/07/28 05:00:17;;;;;;;8.550001;7.6;;;;;;;18.11;100;95045.19;;;;
2021/07/28 05:01:18;;;;;;;8.550001;7.6;;;;;;;18.11;100;95045.19;;;;
2021/07/28 05:02:22;;;;;;;8.550001;7.6;;;;;;;18.11;100;95045.19;;;;
2021/07/28 05:03:23;;;;;;;8.550001;7.6;;;;;;;18.11;100;95045.19;;;;
2021/07/28 05:04:24;;;;;;;8.550001;7.6;;;;;;;18.11;100;95045.19;;;;
2021/07/28 05:05:24;;;;;;;8.550001;7.6;;;;;;;18.11;100;95045.19;;;;
2021/07/28 05:06:25;;;;;;;8.550001;7.6;;;;;;;18.11;100;95045.19;;;;
2021/07/28 05:07:25;;;;;;;8.550001;7.6;;;;;;;18.11;100;95045.19;;;;
2021/07/28 05:08:26;;;;;;;8.550001;7.6;;;;;;;18.11;100;95045.19;;;;
2021/07/28 05:09:26;;;;;;;11.5;7.15;;;;;;;18.06;100;95037.62;;;;
2021/07/28 05:10:27;;;;;;;11.5;7.15;;;;;;;18.06;100;95037.62;;;;
2021/07/28 05:11:27;;;;;;;11.5;7.15;;;;;;;18.06;100;95037.62;;;;
2021/07/28 05:12:28;;;;;;;11.5;7.15;;;;;;;18.06;100;95037.62;;;;
2021/07/28 05:13:28;;;;;;;11.5;7.15;;;;;;;18.06;100;95037.62;;;;
2021/07/28 05:14:29;;;;;;;11.5;7.15;;;;;;;18.06;100;95037.62;;;;
2021/07/28 05:15:29;;;;;;;11.5;7.15;;;;;;;18.06;100;95037.62;;;;
2021/07/28 05:16:30;;;;;;;11.5;7.15;;;;;;;18.06;100;95037.62;;;;
2021/07/28 05:17:30;;;;;;;11.5;7.15;;;;;;;18.06;100;95037.62;;;;
2021/07/28 05:18:31;;;;;;;11.5;7.15;;;;;;;18.06;100;95037.62;;;;
2021/07/28 05:19:31;;;;;;;11.5;7.15;;;;;;;18.06;100;95037.62;;;;
2021/07/28 05:20:32;;;;;;;12.05;7.5;;;;;;;18.16;100;95024.67;;;;
2021/07/28 05:21:33;;;;;;;12.05;7.5;;;;;;;18.16;100;95024.67;;;;
2021/07/28 05:22:33;;;;;;;12.05;7.5;;;;;;;18.16;100;95024.67;;;;
2021/07/28 05:23:34;;;;;;;12.05;7.5;;;;;;;18.16;100;95024.67;;;;
2021/07/28 05:24:34;;;;;;;12.05;7.5;;;;;;;18.16;100;95024.67;;;;
2021/07/28 05:25:35;;;;;;;12.05;7.5;;;;;;;18.16;100;95024.67;;;;
2021/07/28 05:26:35;;;;;;;12.05;7.5;;;;;;;18.16;100;95024.67;;;;
2021/07/28 05:27:36;;;;;;;12.05;7.5;;;;;;;18.16;100;95024.67;;;;
2021/07/28 05:28:36;;;;;;;12.05;7.5;;;;;;;18.16;100;95024.67;;;;
2021/07/28 05:29:37;;;;;;;12.05;7.5;;;;;;;18.16;100;95024.67;;;;
2021/07/28 05:30:37;;;;;;;9.1;7.050001;;;;;;;18.31;100;95016.86;;;;
2021/07/28 05:31:38;;;;;;;9.1;7.050001;;;;;;;18.31;100;95016.86;;;;
2021/07/28 05:32:38;;;;;;;9.1;7.050001;;;;;;;18.31;100;95016.86;;;;
2021/07/28 05:33:39;;;;;;;9.1;7.050001;;;;;;;18.31;100;95016.86;;;;
2021/07/28 05:34:39;;;;;;;9.1;7.050001;;;;;;;18.31;100;95016.86;;;;
2021/07/28 05:35:45;;;;;;;9.1;7.050001;;;;;;;18.31;100;95016.86;;;;
2021/07/28 05:36:45;;;;;;;9.1;7.050001;;;;;;;18.31;100;95016.86;;;;
2021/07/28 05:37:46;;;;;;;9.1;7.050001;;;;;;;18.31;100;95016.86;;;;
2021/07/28 05:38:46;;;;;;;9.1;7.050001;;;;;;;18.31;100;95016.86;;;;
2021/07/28 05:39:47;;;;;;;9.1;7.050001;;;;;;;18.31;100;95016.86;;;;
2021/07/28 05:40:47;;;;;;;9.1;7.050001;;;;;;;18.31;100;95016.86;;;;